createdAt,value
2023-05-14T00:00:19.203Z,71.55
2023-05-14T00:02:45.734Z,71.09
2023-05-14T00:05:12.453Z,71.62
2023-05-14T00:07:38.907Z,71.91
2023-05-14T00:10:06.005Z,71.86
2023-05-14T00:12:32.502Z,72.48
2023-05-14T00:14:58.937Z,72.32
2023-05-14T00:17:25.478Z,72.40
2023-05-14T00:19:51.920Z,72.48
2023-05-14T00:22:18.328Z,72.71
2023-05-14T00:24:44.787Z,72.78
2023-05-14T00:27:11.466Z,72.70
2023-05-14T00:29:37.873Z,73.17
2023-05-14T00:32:04.553Z,73.41
2023-05-14T00:34:30.982Z,73.48
2023-05-14T00:36:57.409Z,73.55
2023-05-14T00:39:23.847Z,73.09
2023-05-14T00:41:50.262Z,72.94
2023-05-14T00:44:16.709Z,73.31
2023-05-14T00:46:43.854Z,74.07
2023-05-14T00:49:11.141Z,74.50
2023-05-14T00:51:38.072Z,74.59
2023-05-14T00:54:04.862Z,74.49
2023-05-14T00:56:31.621Z,74.26
2023-05-14T00:58:58.320Z,73.86
2023-05-14T01:01:24.783Z,74.09
2023-05-14T01:03:53.382Z,74.46
2023-05-14T01:06:41.069Z,74.93
2023-05-14T01:09:23.268Z,74.88
2023-05-14T01:12:12.355Z,75.07
2023-05-14T01:14:56.819Z,75.17
2023-05-14T01:17:28.739Z,74.73
2023-05-14T01:19:55.405Z,74.79
2023-05-14T01:22:21.829Z,74.71
2023-05-14T01:24:48.220Z,75.33
2023-05-14T01:27:41.077Z,75.35
2023-05-14T01:30:21.840Z,75.42
2023-05-14T01:32:53.337Z,75.87
2023-05-14T01:35:26.932Z,76.11
2023-05-14T01:38:06.731Z,74.72
2023-05-14T01:40:34.011Z,74.91
2023-05-14T01:43:00.945Z,75.19
2023-05-14T01:45:27.375Z,75.58
2023-05-14T01:47:53.932Z,74.72
2023-05-14T01:50:20.444Z,75.56
2023-05-14T01:52:48.321Z,76.20
2023-05-14T01:55:15.761Z,75.93
2023-05-14T01:57:42.192Z,75.87
2023-05-14T02:00:09.341Z,76.00
2023-05-14T02:02:41.614Z,75.44
2023-05-14T02:05:11.204Z,76.11
2023-05-14T02:07:37.629Z,75.69
2023-05-14T02:10:04.321Z,75.68
2023-05-14T02:12:30.904Z,75.77
2023-05-14T02:14:57.324Z,75.95
2023-05-14T02:17:25.912Z,76.47
2023-05-14T02:19:52.668Z,76.13
2023-05-14T02:22:19.094Z,75.36
2023-05-14T02:24:45.949Z,75.32
2023-05-14T02:27:13.284Z,75.12
2023-05-14T02:29:39.746Z,75.04
2023-05-14T02:32:06.483Z,76.66
2023-05-14T02:34:34.378Z,76.56
2023-05-14T02:37:01.088Z,76.29
2023-05-14T02:39:27.501Z,76.59
2023-05-14T02:41:53.925Z,76.19
2023-05-14T02:44:20.408Z,77.21
2023-05-14T02:46:46.869Z,76.50
2023-05-14T02:49:13.395Z,78.04
2023-05-14T02:51:39.903Z,77.28
2023-05-14T02:54:06.367Z,77.86
2023-05-14T02:56:32.804Z,77.66
2023-05-14T02:58:59.208Z,78.29
2023-05-14T03:01:26.072Z,77.56
2023-05-14T03:03:52.951Z,77.67
2023-05-14T03:06:19.348Z,78.18
2023-05-14T03:08:45.778Z,78.17
2023-05-14T03:11:12.188Z,79.03
2023-05-14T03:13:38.802Z,78.56
2023-05-14T03:16:05.848Z,78.43
2023-05-14T03:18:33.344Z,77.71
2023-05-14T03:20:59.756Z,77.84
2023-05-14T03:23:27.310Z,77.65
2023-05-14T03:25:53.756Z,78.30
2023-05-14T03:28:20.256Z,79.47
2023-05-14T03:30:46.777Z,80.53
2023-05-14T03:33:13.227Z,80.77
2023-05-14T03:35:39.677Z,80.36
2023-05-14T03:38:06.122Z,80.32
2023-05-14T03:40:34.209Z,80.40
2023-05-14T03:43:00.725Z,78.43
2023-05-14T03:45:28.650Z,78.76
2023-05-14T03:47:55.145Z,78.34
2023-05-14T03:50:23.024Z,78.72
2023-05-14T03:52:50.574Z,79.03
2023-05-14T03:55:17.000Z,80.29
2023-05-14T03:57:43.411Z,80.29
2023-05-14T04:00:11.490Z,80.02
2023-05-14T04:02:43.833Z,79.26
2023-05-14T04:05:10.642Z,80.15
2023-05-14T04:07:37.136Z,79.71
2023-05-14T04:10:04.761Z,81.58
2023-05-14T04:12:31.446Z,81.19
2023-05-14T04:14:58.511Z,80.93
2023-05-14T04:17:25.668Z,81.67
2023-05-14T04:19:52.109Z,80.91
2023-05-14T04:22:18.536Z,81.53
2023-05-14T04:24:44.950Z,81.26
2023-05-14T04:27:11.405Z,80.89
2023-05-14T04:29:37.831Z,81.24
2023-05-14T04:32:04.566Z,80.92
2023-05-14T04:34:31.113Z,81.41
2023-05-14T04:36:57.590Z,81.69
2023-05-14T04:39:24.042Z,80.69
2023-05-14T04:41:51.121Z,82.50
2023-05-14T04:44:17.795Z,82.13
2023-05-14T04:46:44.186Z,82.77
2023-05-14T04:49:10.575Z,82.33
2023-05-14T04:51:36.999Z,81.81
2023-05-14T04:54:03.466Z,80.68
2023-05-14T04:56:29.899Z,81.01
2023-05-14T04:58:56.297Z,81.32
2023-05-14T05:01:23.476Z,81.77
2023-05-14T05:03:50.083Z,80.40
2023-05-14T05:06:16.703Z,80.52
2023-05-14T05:08:43.103Z,80.24
2023-05-14T05:11:09.506Z,80.98
2023-05-14T05:13:35.928Z,80.21
2023-05-14T05:16:02.402Z,80.12
2023-05-14T05:18:28.919Z,80.55
2023-05-14T05:20:56.104Z,80.39
2023-05-14T05:23:22.533Z,78.63
2023-05-14T05:25:49.555Z,79.70
2023-05-14T05:28:16.125Z,78.04
2023-05-14T05:30:44.973Z,75.45
2023-05-14T05:33:12.488Z,73.69
2023-05-14T05:35:39.035Z,71.06
2023-05-14T05:38:05.427Z,68.94
2023-05-14T05:40:31.838Z,66.37
2023-05-14T05:42:58.257Z,64.64
2023-05-14T05:45:24.661Z,63.50
2023-05-14T05:47:51.244Z,60.88
2023-05-14T05:50:19.814Z,60.80
2023-05-14T05:52:46.526Z,57.70
2023-05-14T05:55:12.991Z,55.86
2023-05-14T05:57:39.412Z,54.29
2023-05-14T06:00:24.918Z,53.49
2023-05-14T06:02:52.315Z,52.47
2023-05-14T06:05:19.500Z,51.96
2023-05-14T06:07:45.955Z,50.48
2023-05-14T06:10:12.385Z,50.11
2023-05-14T06:12:38.791Z,49.05
2023-05-14T06:15:05.682Z,49.51
2023-05-14T06:17:32.170Z,49.53
2023-05-14T06:19:58.645Z,48.78
2023-05-14T06:22:25.096Z,49.54
2023-05-14T06:24:51.536Z,49.16
2023-05-14T06:27:17.943Z,49.10
2023-05-14T06:29:44.336Z,48.57
2023-05-14T06:32:10.800Z,48.51
2023-05-14T06:34:37.282Z,48.37
2023-05-14T06:37:04.246Z,47.75
2023-05-14T06:39:30.856Z,47.58
2023-05-14T06:41:57.260Z,47.45
2023-05-14T06:44:23.706Z,47.66
2023-05-14T06:46:50.121Z,47.81
2023-05-14T06:49:16.788Z,48.25
2023-05-14T06:51:43.322Z,48.62
2023-05-14T06:54:09.738Z,48.02
2023-05-14T06:56:36.140Z,48.76
2023-05-14T06:59:02.743Z,48.42
2023-05-14T07:01:29.248Z,47.90
2023-05-14T07:03:55.884Z,48.58
2023-05-14T07:06:23.064Z,49.02
2023-05-14T07:08:49.549Z,49.34
2023-05-14T07:11:15.982Z,49.11
2023-05-14T07:13:42.850Z,49.09
2023-05-14T07:16:10.264Z,49.63
2023-05-14T07:18:36.714Z,48.89
2023-05-14T07:21:06.342Z,48.60
2023-05-14T07:23:33.718Z,48.96
2023-05-14T07:26:00.194Z,48.52
2023-05-14T07:28:26.667Z,48.30
2023-05-14T07:30:53.138Z,48.54
2023-05-14T07:33:19.547Z,48.61
2023-05-14T07:35:46.128Z,48.83
2023-05-14T07:38:12.592Z,49.06
2023-05-14T07:40:39.052Z,48.88
2023-05-14T07:43:05.475Z,48.90
2023-05-14T07:45:32.026Z,48.62
2023-05-14T07:47:58.652Z,49.18
2023-05-14T07:50:25.387Z,49.52
2023-05-14T07:52:51.973Z,50.25
2023-05-14T07:55:18.364Z,48.59
2023-05-14T07:57:45.633Z,48.90
2023-05-14T08:00:12.776Z,47.88
2023-05-14T08:02:39.272Z,47.93
2023-05-14T08:05:06.190Z,48.07
2023-05-14T08:07:33.568Z,47.56
2023-05-14T08:09:59.997Z,46.10
2023-05-14T08:12:26.827Z,46.06
2023-05-14T08:14:53.240Z,45.50
2023-05-14T08:17:19.715Z,46.60
2023-05-14T08:19:46.807Z,45.95
2023-05-14T08:22:13.274Z,44.82
2023-05-14T08:24:39.717Z,44.46
2023-05-14T08:27:06.517Z,43.95
2023-05-14T08:29:32.981Z,43.81
2023-05-14T08:32:03.847Z,43.39
2023-05-14T08:34:38.474Z,43.18
2023-05-14T08:37:04.960Z,42.02
2023-05-14T08:39:31.387Z,42.62
2023-05-14T08:41:58.117Z,41.71
2023-05-14T08:44:36.075Z,41.74
2023-05-14T08:47:02.767Z,41.39
2023-05-14T08:49:43.322Z,41.95
2023-05-14T08:52:10.607Z,41.37
2023-05-14T08:54:37.275Z,41.06
2023-05-14T08:57:04.571Z,40.43
2023-05-14T08:59:31.074Z,41.04
2023-05-14T09:02:01.936Z,41.28
2023-05-14T09:04:29.603Z,40.71
2023-05-14T09:06:56.176Z,40.32
2023-05-14T09:09:23.687Z,39.92
2023-05-14T09:11:51.989Z,41.18
2023-05-14T09:14:19.368Z,41.08
2023-05-14T09:16:47.069Z,40.21
2023-05-14T09:19:14.123Z,40.25
2023-05-14T09:21:41.173Z,39.96
2023-05-14T09:24:08.248Z,40.24
2023-05-14T09:26:35.547Z,41.50
2023-05-14T09:29:02.762Z,39.98
2023-05-14T09:31:31.395Z,39.90
2023-05-14T09:33:59.219Z,39.42
2023-05-14T09:36:27.144Z,39.63
2023-05-14T09:38:56.809Z,39.04
2023-05-14T09:41:23.366Z,38.17
2023-05-14T09:43:50.824Z,39.01
2023-05-14T09:46:17.872Z,38.98
2023-05-14T09:48:45.957Z,38.24
2023-05-14T09:51:13.438Z,38.99
2023-05-14T09:53:41.250Z,38.87
2023-05-14T09:56:07.672Z,38.81
2023-05-14T09:58:34.097Z,38.87
2023-05-14T10:01:01.800Z,38.25
2023-05-14T10:03:29.872Z,38.21
2023-05-14T10:06:00.608Z,39.22
2023-05-14T10:08:30.880Z,37.78
2023-05-14T10:10:59.446Z,38.26
2023-05-14T10:13:31.648Z,37.93
2023-05-14T10:16:11.222Z,38.54
2023-05-14T10:18:46.695Z,38.13
2023-05-14T10:21:14.785Z,38.16
2023-05-14T10:23:42.247Z,38.62
2023-05-14T10:26:10.351Z,39.29
2023-05-14T10:28:37.069Z,39.06
2023-05-14T10:31:03.503Z,38.92
2023-05-14T10:33:30.045Z,38.73
2023-05-14T10:35:57.706Z,38.03
2023-05-14T10:38:33.097Z,38.84
2023-05-14T10:41:21.496Z,39.15
2023-05-14T10:43:48.081Z,39.11
2023-05-14T10:46:14.839Z,40.08
2023-05-14T10:48:43.138Z,40.60
2023-05-14T10:51:10.870Z,40.19
2023-05-14T10:53:42.700Z,40.24
2023-05-14T10:56:11.539Z,39.60
2023-05-14T10:58:39.457Z,39.95
2023-05-14T11:01:10.872Z,41.34
2023-05-14T11:03:45.613Z,42.33
2023-05-14T11:06:14.486Z,42.10
2023-05-14T11:08:41.662Z,43.15
2023-05-14T11:11:09.205Z,42.85
2023-05-14T11:13:35.908Z,42.85
2023-05-14T11:16:15.080Z,42.02
2023-05-14T11:18:47.976Z,41.90
2023-05-14T11:21:14.390Z,40.77
2023-05-14T11:23:40.839Z,41.65
2023-05-14T11:26:07.372Z,42.47
2023-05-14T11:28:34.288Z,41.66
2023-05-14T11:31:00.759Z,42.35
2023-05-14T11:33:27.800Z,41.58
2023-05-14T11:35:54.220Z,40.87
2023-05-14T11:38:21.425Z,40.14
2023-05-14T11:40:58.402Z,40.80
2023-05-14T11:43:28.356Z,42.15
2023-05-14T11:45:55.538Z,41.67
2023-05-14T11:48:23.071Z,42.66
2023-05-14T11:50:52.442Z,42.95
2023-05-14T11:53:19.219Z,42.86
2023-05-14T11:55:47.243Z,43.22
2023-05-14T11:58:13.956Z,43.95
2023-05-14T12:00:40.790Z,43.20
2023-05-14T12:03:10.087Z,43.43
2023-05-14T12:05:39.182Z,43.67
2023-05-14T12:08:41.118Z,43.43
2023-05-14T12:11:09.088Z,43.48
2023-05-14T12:13:36.563Z,43.60
2023-05-14T12:16:03.205Z,43.74
2023-05-14T12:18:31.759Z,43.16
2023-05-14T12:21:05.946Z,42.95
2023-05-14T12:23:32.758Z,43.08
2023-05-14T12:26:06.906Z,43.11
2023-05-14T12:28:36.066Z,42.76
2023-05-14T12:31:04.276Z,42.70
2023-05-14T12:33:30.866Z,42.68
2023-05-14T12:36:09.906Z,42.34
2023-05-14T12:38:46.598Z,43.87
2023-05-14T12:41:13.021Z,43.85
2023-05-14T12:43:43.050Z,42.62
2023-05-14T12:46:09.690Z,42.89
2023-05-14T12:48:36.164Z,42.98
2023-05-14T12:51:02.578Z,42.50
2023-05-14T12:53:28.986Z,41.71
2023-05-14T12:55:55.458Z,42.76
2023-05-14T12:58:21.866Z,43.41
2023-05-14T13:00:48.286Z,42.52
2023-05-14T13:03:14.817Z,42.26
2023-05-14T13:05:41.344Z,41.82
2023-05-14T13:08:07.746Z,41.22
2023-05-14T13:10:34.129Z,42.11
2023-05-14T13:13:02.006Z,41.46
2023-05-14T13:15:28.736Z,42.15
2023-05-14T13:17:55.215Z,41.78
2023-05-14T13:20:21.645Z,41.54
2023-05-14T13:22:48.078Z,41.21
2023-05-14T13:25:14.530Z,40.81
2023-05-14T13:27:41.014Z,40.62
2023-05-14T13:30:07.850Z,40.68
2023-05-14T13:32:34.352Z,40.38
2023-05-14T13:35:00.814Z,40.31
2023-05-14T13:37:27.197Z,40.66
2023-05-14T13:39:53.587Z,40.51
2023-05-14T13:42:19.996Z,41.01
2023-05-14T13:44:46.417Z,41.33
2023-05-14T13:47:12.852Z,41.12
2023-05-14T13:49:40.260Z,41.26
2023-05-14T13:52:06.959Z,41.54
2023-05-14T13:54:33.395Z,41.10
2023-05-14T13:56:59.794Z,40.15
2023-05-14T13:59:26.276Z,40.06
2023-05-14T14:01:52.772Z,39.72
2023-05-14T14:04:19.917Z,40.10
2023-05-14T14:06:46.357Z,40.35
2023-05-14T14:09:13.748Z,39.76
2023-05-14T14:11:41.005Z,39.81
2023-05-14T14:14:07.412Z,39.94
2023-05-14T14:16:33.804Z,39.51
2023-05-14T14:19:00.275Z,39.91
2023-05-14T14:21:26.720Z,40.43
2023-05-14T14:23:53.589Z,40.19
2023-05-14T14:26:20.015Z,39.55
2023-05-14T14:28:46.527Z,40.31
2023-05-14T14:31:13.445Z,39.97
2023-05-14T14:33:39.917Z,39.80
2023-05-14T14:36:06.755Z,39.77
2023-05-14T14:38:33.172Z,39.92
2023-05-14T14:40:59.869Z,39.75
2023-05-14T14:43:26.292Z,40.33
2023-05-14T14:45:52.715Z,40.87
2023-05-14T14:48:37.249Z,40.92
2023-05-14T14:51:04.701Z,40.79
2023-05-14T14:53:31.609Z,41.17
2023-05-14T14:55:58.704Z,41.51
2023-05-14T14:58:25.116Z,41.84
2023-05-14T15:00:56.123Z,41.29
2023-05-14T15:03:24.342Z,41.00
2023-05-14T15:05:52.095Z,42.02
2023-05-14T15:08:18.949Z,41.39
2023-05-14T15:10:45.695Z,41.59
2023-05-14T15:13:12.743Z,41.41
2023-05-14T15:15:39.155Z,41.84
2023-05-14T15:18:05.681Z,41.50
2023-05-14T15:20:32.142Z,41.07
2023-05-14T15:22:58.653Z,41.68
2023-05-14T15:25:26.123Z,41.16
2023-05-14T15:27:52.685Z,41.52
2023-05-14T15:30:19.174Z,41.61
2023-05-14T15:32:46.504Z,41.99
2023-05-14T15:35:12.972Z,40.34
2023-05-14T15:37:44.094Z,39.56
2023-05-14T15:40:11.312Z,40.23
2023-05-14T15:42:39.735Z,39.88
2023-05-14T15:45:06.360Z,41.05
2023-05-14T15:47:32.813Z,39.29
2023-05-14T15:49:59.912Z,39.70
2023-05-14T15:52:26.517Z,39.73
2023-05-14T15:54:54.191Z,39.58
2023-05-14T15:57:20.597Z,39.01
2023-05-14T15:59:47.437Z,38.99
2023-05-14T16:02:14.945Z,38.51
2023-05-14T16:04:41.378Z,38.33
2023-05-14T16:07:09.861Z,38.67
2023-05-14T16:09:36.675Z,38.89
2023-05-14T16:12:03.382Z,38.13
2023-05-14T16:14:29.807Z,38.37
2023-05-14T16:16:56.326Z,38.82
2023-05-14T16:19:23.389Z,38.37
2023-05-14T16:21:49.816Z,38.49
2023-05-14T16:24:18.064Z,38.31
2023-05-14T16:26:44.650Z,38.79
2023-05-14T16:29:11.446Z,38.78
2023-05-14T16:31:38.189Z,39.23
2023-05-14T16:34:04.704Z,39.11
2023-05-14T16:36:31.399Z,39.20
2023-05-14T16:39:07.372Z,39.67
2023-05-14T16:41:35.733Z,39.97
2023-05-14T16:44:02.508Z,39.40
2023-05-14T16:46:29.410Z,39.26
2023-05-14T16:48:56.141Z,39.75
2023-05-14T16:51:22.681Z,39.65
2023-05-14T16:53:49.180Z,39.17
2023-05-14T16:56:15.657Z,39.67
2023-05-14T16:58:42.056Z,39.48
2023-05-14T17:01:09.912Z,40.01
2023-05-14T17:03:36.809Z,40.08
2023-05-14T17:06:03.485Z,40.13
2023-05-14T17:08:33.383Z,40.25
2023-05-14T17:10:59.810Z,40.59
2023-05-14T17:13:26.252Z,40.51
2023-05-14T17:15:52.770Z,40.72
2023-05-14T17:18:19.265Z,41.26
2023-05-14T17:20:45.783Z,41.51
2023-05-14T17:23:12.298Z,42.37
2023-05-14T17:25:38.712Z,42.26
2023-05-14T17:28:05.487Z,42.57
2023-05-14T17:30:32.069Z,43.35
2023-05-14T17:32:58.590Z,42.97
2023-05-14T17:35:25.702Z,42.81
2023-05-14T17:37:52.285Z,42.77
2023-05-14T17:40:18.761Z,42.57
2023-05-14T17:42:45.699Z,43.36
2023-05-14T17:45:14.451Z,43.65
2023-05-14T17:47:40.950Z,43.24
2023-05-14T17:50:07.871Z,43.91
2023-05-14T17:52:34.295Z,43.72
2023-05-14T17:55:00.729Z,43.83
2023-05-14T17:57:27.187Z,44.59
2023-05-14T17:59:53.598Z,44.31
2023-05-14T18:02:20.005Z,43.84
2023-05-14T18:04:46.663Z,44.19
2023-05-14T18:07:13.226Z,44.58
2023-05-14T18:09:42.547Z,45.09
2023-05-14T18:12:09.002Z,45.22
2023-05-14T18:14:35.399Z,45.09
2023-05-14T18:17:01.916Z,45.16
2023-05-14T18:19:28.366Z,45.25
2023-05-14T18:21:55.471Z,45.29
2023-05-14T18:24:22.285Z,45.40
2023-05-14T18:26:49.514Z,45.06
2023-05-14T18:29:15.949Z,44.94
2023-05-14T18:31:42.388Z,45.08
2023-05-14T18:34:08.804Z,45.58
2023-05-14T18:36:35.393Z,45.33
2023-05-14T18:39:01.828Z,45.56
2023-05-14T18:41:28.374Z,45.45
2023-05-14T18:43:54.778Z,45.52
2023-05-14T18:46:21.205Z,45.49
2023-05-14T18:48:47.651Z,45.54
2023-05-14T18:51:14.103Z,45.79
2023-05-14T18:53:40.541Z,46.08
2023-05-14T18:56:07.946Z,46.32
2023-05-14T18:58:34.354Z,46.40
2023-05-14T19:01:01.042Z,46.93
2023-05-14T19:03:27.520Z,47.97
2023-05-14T19:05:54.180Z,48.78
2023-05-14T19:08:20.624Z,49.37
2023-05-14T19:10:47.065Z,48.50
2023-05-14T19:13:13.502Z,48.03
2023-05-14T19:15:39.941Z,48.40
2023-05-14T19:18:06.594Z,48.99
2023-05-14T19:20:33.122Z,49.79
2023-05-14T19:22:59.544Z,49.60
2023-05-14T19:25:26.175Z,50.51
2023-05-14T19:27:53.638Z,50.41
2023-05-14T19:30:20.517Z,50.67
2023-05-14T19:32:46.967Z,51.22
2023-05-14T19:35:13.429Z,51.83
2023-05-14T19:37:39.884Z,52.04
2023-05-14T19:40:06.918Z,52.92
2023-05-14T19:42:33.313Z,53.27
2023-05-14T19:44:59.715Z,53.44
2023-05-14T19:47:26.211Z,54.00
2023-05-14T19:49:52.643Z,54.70
2023-05-14T19:52:19.086Z,54.71
2023-05-14T19:54:45.513Z,55.09
2023-05-14T19:57:11.921Z,56.21
2023-05-14T19:59:39.263Z,55.78
2023-05-14T20:02:05.760Z,56.20
2023-05-14T20:04:33.216Z,56.52
2023-05-14T20:06:59.624Z,56.68
2023-05-14T20:09:26.111Z,57.09
2023-05-14T20:11:52.505Z,57.07
2023-05-14T20:14:18.926Z,56.53
2023-05-14T20:16:46.925Z,56.97
2023-05-14T20:19:14.205Z,57.19
2023-05-14T20:21:40.665Z,57.80
2023-05-14T20:24:07.131Z,57.65
2023-05-14T20:26:33.835Z,57.88
2023-05-14T20:29:00.255Z,58.55
2023-05-14T20:31:26.705Z,59.31
2023-05-14T20:33:53.147Z,59.40
2023-05-14T20:36:19.588Z,59.93
2023-05-14T20:38:47.291Z,59.85
2023-05-14T20:41:13.693Z,59.61
2023-05-14T20:43:40.109Z,60.90
2023-05-14T20:46:07.274Z,61.19
2023-05-14T20:48:33.717Z,62.27
2023-05-14T20:51:01.582Z,62.95
2023-05-14T20:53:28.697Z,61.35
2023-05-14T20:55:55.881Z,62.80
2023-05-14T20:58:22.353Z,62.53
2023-05-14T21:00:48.798Z,63.13
2023-05-14T21:03:15.406Z,63.16
2023-05-14T21:05:43.564Z,63.41
2023-05-14T21:08:10.845Z,63.39
2023-05-14T21:10:37.337Z,63.81
2023-05-14T21:13:03.769Z,63.66
2023-05-14T21:15:30.699Z,64.12
2023-05-14T21:17:57.197Z,64.94
2023-05-14T21:20:23.684Z,64.42
2023-05-14T21:22:50.103Z,64.68
2023-05-14T21:25:16.594Z,65.17
2023-05-14T21:27:43.034Z,65.69
2023-05-14T21:30:09.909Z,65.54
2023-05-14T21:32:36.350Z,65.05
2023-05-14T21:35:03.052Z,65.08
2023-05-14T21:37:29.526Z,65.16
2023-05-14T21:39:55.986Z,66.02
2023-05-14T21:42:22.388Z,65.67
2023-05-14T21:44:48.801Z,66.10
2023-05-14T21:47:16.089Z,66.53
2023-05-14T21:49:43.056Z,65.79
2023-05-14T21:52:09.478Z,65.55
2023-05-14T21:54:35.891Z,65.91
2023-05-14T21:57:02.314Z,65.96
2023-05-14T21:59:29.283Z,66.69
2023-05-14T22:02:06.954Z,66.82
2023-05-14T22:04:35.085Z,66.80
2023-05-14T22:07:01.668Z,66.38
2023-05-14T22:09:28.062Z,66.34
2023-05-14T22:11:54.451Z,67.19
2023-05-14T22:14:20.852Z,66.96
2023-05-14T22:16:47.343Z,67.44
2023-05-14T22:19:18.092Z,67.28
2023-05-14T22:21:44.595Z,68.00
2023-05-14T22:24:11.033Z,67.74
2023-05-14T22:26:37.456Z,68.38
2023-05-14T22:29:03.904Z,68.46
2023-05-14T22:31:30.551Z,68.46
2023-05-14T22:33:57.048Z,67.97
2023-05-14T22:36:23.489Z,68.91
2023-05-14T22:38:49.937Z,69.07
2023-05-14T22:41:17.572Z,69.41
2023-05-14T22:43:44.051Z,69.61
2023-05-14T22:46:10.783Z,69.25
2023-05-14T22:48:37.211Z,69.59
2023-05-14T22:51:03.682Z,70.18
2023-05-14T22:53:30.080Z,70.13
2023-05-14T22:55:56.481Z,70.88
2023-05-14T22:58:22.887Z,70.47
2023-05-14T23:00:49.361Z,70.59
2023-05-14T23:03:15.760Z,70.51
2023-05-14T23:05:42.157Z,70.53
2023-05-14T23:08:08.598Z,71.01
2023-05-14T23:10:37.697Z,70.88
2023-05-14T23:13:04.181Z,71.35
2023-05-14T23:15:30.594Z,71.63
2023-05-14T23:17:57.147Z,71.69
2023-05-14T23:20:23.644Z,72.54
2023-05-14T23:22:50.058Z,72.25
2023-05-14T23:25:16.480Z,72.08
2023-05-14T23:27:42.895Z,72.28
2023-05-14T23:30:09.944Z,72.28
2023-05-14T23:32:36.352Z,73.19
2023-05-14T23:35:03.061Z,72.48
2023-05-14T23:37:29.611Z,72.79
2023-05-14T23:39:56.018Z,72.99
2023-05-14T23:42:22.410Z,73.58
2023-05-14T23:44:48.883Z,73.40
2023-05-14T23:47:15.284Z,73.24
2023-05-14T23:49:41.806Z,74.03
2023-05-14T23:52:08.195Z,73.32
2023-05-14T23:54:34.607Z,73.63
2023-05-14T23:57:02.979Z,73.63
2023-05-14T23:59:29.370Z,73.76
